Time;durP1;ratioP1;P1;durP2;ratioP2;P2;SDS_P1;SDS_P2;PMS_P1;PMS_P2;Temp;Humidity;BMP_temperature;BMP_pressure;BME280_temperature;BME280_humidity;BME280_pressure;Samples;Min_cycle;Max_cycle;Signal;HPM_P1;HPM_P2
2022/05/02 00:00:42;;;;;;;8.60;6.00;;;8.10;99.90;;;;;;5111232;28;20560;-66
2022/05/02 00:03:09;;;;;;;9.85;6.22;;;8.10;99.90;;;;;;5111345;28;20412;-66
2022/05/02 00:05:35;;;;;;;8.82;6.57;;;8.00;99.90;;;;;;5093052;28;20073;-66
2022/05/02 00:08:01;;;;;;;10.00;6.32;;;8.00;99.90;;;;;;5110874;28;20081;-65
2022/05/02 00:10:26;;;;;;;8.02;6.50;;;7.90;99.90;;;;;;5110194;28;20040;-65
2022/05/02 00:12:53;;;;;;;8.38;5.70;;;7.90;99.90;;;;;;5111263;28;20191;-65
2022/05/02 00:15:19;;;;;;;10.25;6.93;;;7.90;99.90;;;;;;5092599;28;20048;-65
2022/05/02 00:17:56;;;;;;;10.02;6.05;;;7.80;99.90;;;;;;5111054;28;20092;-65
2022/05/02 00:20:25;;;;;;;9.82;6.32;;;7.80;99.90;;;;;;5109783;28;20035;-66
2022/05/02 00:22:50;;;;;;;8.13;6.70;;;7.80;99.90;;;;;;5110907;28;20050;-65
2022/05/02 00:25:16;;;;;;;8.00;6.47;;;7.70;99.90;;;;;;5110950;28;20493;-64
2022/05/02 00:27:42;;;;;;;10.05;6.40;;;7.70;99.90;;;;;;5114366;28;20035;-65
2022/05/02 00:30:10;;;;;;;9.35;6.53;;;7.70;99.90;;;;;;5114643;28;20035;-64
2022/05/02 00:32:35;;;;;;;9.77;6.63;;;7.70;99.90;;;;;;5115293;28;20101;-65
2022/05/02 00:35:02;;;;;;;8.43;6.45;;;7.70;99.90;;;;;;5115157;28;20427;-65
2022/05/02 00:37:29;;;;;;;9.45;7.07;;;7.70;99.90;;;;;;5114925;28;20047;-65
2022/05/02 00:39:54;;;;;;;10.60;6.90;;;7.60;99.90;;;;;;5114762;28;20044;-65
2022/05/02 00:42:20;;;;;;;10.57;7.35;;;7.60;99.90;;;;;;5114831;28;20047;-64
2022/05/02 00:44:46;;;;;;;9.98;7.38;;;7.60;99.90;;;;;;5114793;28;20043;-64
2022/05/02 00:47:15;;;;;;;11.02;8.23;;;7.60;99.90;;;;;;5096452;28;20503;-65
2022/05/02 00:49:41;;;;;;;10.18;8.20;;;7.60;99.90;;;;;;5114588;28;20095;-64
2022/05/02 00:52:07;;;;;;;15.05;8.48;;;7.60;99.90;;;;;;5114592;28;20051;-65
2022/05/02 00:54:33;;;;;;;11.73;8.40;;;7.60;99.90;;;;;;5114637;28;20043;-64
2022/05/02 00:57:00;;;;;;;13.20;8.45;;;7.50;99.90;;;;;;5114237;28;20043;-65
2022/05/02 00:59:26;;;;;;;11.38;8.20;;;7.50;99.90;;;;;;5113873;28;20111;-65
2022/05/02 01:01:52;;;;;;;12.88;8.63;;;7.40;99.90;;;;;;5114773;28;20114;-64
2022/05/02 01:04:18;;;;;;;13.77;8.77;;;7.40;99.90;;;;;;5114457;28;20153;-65
2022/05/02 01:09:31;;;;;;;13.55;8.43;;;7.30;99.90;;;;;;5113011;28;20126;-64
2022/05/02 01:11:57;;;;;;;13.65;7.93;;;7.30;99.90;;;;;;5112415;28;20046;-64
2022/05/02 01:14:23;;;;;;;12.57;8.68;;;7.30;99.90;;;;;;5114017;28;20039;-64
2022/05/02 01:16:49;;;;;;;12.00;8.45;;;7.30;99.90;;;;;;5113412;28;20043;-64
2022/05/02 01:19:15;;;;;;;9.90;7.50;;;7.20;99.90;;;;;;5113467;28;20120;-64
2022/05/02 01:21:43;;;;;;;9.75;7.25;;;7.20;99.90;;;;;;5113348;28;20429;-64
2022/05/02 01:24:09;;;;;;;11.32;7.90;;;7.10;99.90;;;;;;5113720;28;20038;-64
2022/05/02 01:26:36;;;;;;;10.20;7.65;;;7.20;99.90;;;;;;5113366;28;20039;-65
2022/05/02 01:29:02;;;;;;;13.95;8.40;;;7.20;99.90;;;;;;5113816;28;20040;-66
2022/05/02 01:31:28;;;;;;;13.38;7.70;;;7.20;99.90;;;;;;5113084;28;20113;-64
2022/05/02 01:33:54;;;;;;;12.73;7.97;;;7.20;99.90;;;;;;5114012;28;20052;-65
2022/05/02 01:36:21;;;;;;;13.35;8.25;;;7.20;99.90;;;;;;5112208;28;20043;-65
2022/05/02 01:38:47;;;;;;;9.77;7.22;;;7.10;99.90;;;;;;5113138;28;20075;-65
2022/05/02 01:41:12;;;;;;;14.45;8.20;;;7.10;99.90;;;;;;5113545;28;20070;-64
2022/05/02 01:43:39;;;;;;;10.38;7.13;;;7.10;99.90;;;;;;5113656;28;20039;-66
2022/05/02 01:46:07;;;;;;;11.27;7.35;;;7.00;99.90;;;;;;5113438;28;20031;-65
2022/05/02 01:48:33;;;;;;;11.45;8.07;;;7.00;99.90;;;;;;5113392;28;20118;-65
2022/05/02 01:50:59;;;;;;;13.23;8.23;;;7.00;99.90;;;;;;5113626;28;20095;-66
2022/05/02 01:53:25;;;;;;;10.48;7.95;;;6.90;99.90;;;;;;5113411;28;20046;-65
2022/05/02 01:55:50;;;;;;;14.57;7.90;;;6.90;99.90;;;;;;5113614;28;20035;-64
2022/05/02 01:58:16;;;;;;;11.30;7.75;;;6.90;99.90;;;;;;5113253;28;20109;-64
2022/05/02 02:00:42;;;;;;;16.52;7.78;;;6.90;99.90;;;;;;5113218;28;20051;-64
2022/05/02 02:03:07;;;;;;;11.98;7.75;;;6.80;99.90;;;;;;5113233;28;20031;-64
2022/05/02 02:05:48;;;;;;;11.30;8.10;;;6.70;99.90;;;;;;5113180;28;20036;-64
2022/05/02 02:08:19;;;;;;;11.13;7.00;;;6.70;99.90;;;;;;5112468;28;20560;-65
2022/05/02 02:10:46;;;;;;;11.27;7.57;;;6.70;99.90;;;;;;5112115;28;20039;-65
2022/05/02 02:13:12;;;;;;;11.88;7.97;;;6.70;99.90;;;;;;5113290;28;20456;-64
2022/05/02 02:15:38;;;;;;;14.73;8.50;;;6.80;99.90;;;;;;5112898;28;20074;-65
2022/05/02 02:18:04;;;;;;;11.98;8.23;;;6.80;99.90;;;;;;5112933;28;20039;-64
2022/05/02 02:20:30;;;;;;;12.38;7.60;;;6.70;99.90;;;;;;5111198;28;20039;-65
2022/05/02 02:22:56;;;;;;;15.05;8.70;;;6.60;99.90;;;;;;5113176;28;20036;-64
2022/05/02 02:25:22;;;;;;;13.63;9.57;;;6.50;99.90;;;;;;5112525;28;20070;-64
2022/05/02 02:27:48;;;;;;;16.58;9.60;;;6.60;99.90;;;;;;5112700;28;20036;-65
2022/05/02 02:30:14;;;;;;;12.18;8.20;;;6.70;99.90;;;;;;5112577;28;20056;-64
2022/05/02 02:32:41;;;;;;;14.07;8.93;;;6.60;99.90;;;;;;5112763;28;20108;-65
2022/05/02 02:35:07;;;;;;;14.80;8.90;;;6.70;99.90;;;;;;5112497;28;20035;-64
2022/05/02 02:37:33;;;;;;;14.63;8.40;;;6.60;99.90;;;;;;5112889;28;20376;-64
2022/05/02 02:39:59;;;;;;;12.60;8.35;;;6.60;99.90;;;;;;5112412;28;20097;-64
2022/05/02 02:42:24;;;;;;;13.27;7.78;;;6.50;99.90;;;;;;5112384;28;20040;-65
2022/05/02 02:44:50;;;;;;;11.98;7.93;;;6.50;99.90;;;;;;5112592;28;20027;-65
2022/05/02 02:47:16;;;;;;;10.88;7.53;;;6.50;99.90;;;;;;5112340;28;20118;-65
2022/05/02 02:49:42;;;;;;;10.75;8.45;;;6.50;99.90;;;;;;5111156;28;20119;-64
2022/05/02 02:52:08;;;;;;;13.40;7.97;;;6.40;99.90;;;;;;5112190;28;20096;-64
2022/05/02 02:54:34;;;;;;;12.73;8.95;;;6.40;99.90;;;;;;5112179;28;20050;-64
2022/05/02 02:56:59;;;;;;;12.18;8.18;;;6.40;99.90;;;;;;5111360;28;20047;-64
2022/05/02 02:59:25;;;;;;;13.13;8.32;;;6.30;99.90;;;;;;5111426;28;20028;-65
2022/05/02 03:01:51;;;;;;;13.35;8.63;;;6.30;99.90;;;;;;5111486;28;20081;-64
2022/05/02 03:07:01;;;;;;;15.32;9.30;;;6.30;99.90;;;;;;5111887;28;20123;-64
2022/05/02 03:09:28;;;;;;;12.93;8.77;;;6.30;99.90;;;;;;5111724;28;20551;-65
2022/05/02 03:11:54;;;;;;;12.65;8.40;;;6.30;99.90;;;;;;5112221;28;20050;-65
2022/05/02 03:14:20;;;;;;;12.77;8.60;;;6.30;99.90;;;;;;5111895;28;20043;-64
2022/05/02 03:16:45;;;;;;;13.93;9.32;;;6.20;99.90;;;;;;5111650;28;20051;-65
2022/05/02 03:19:11;;;;;;;15.48;8.45;;;6.30;99.90;;;;;;5111355;28;20050;-65
2022/05/02 03:21:37;;;;;;;11.13;8.23;;;6.20;99.90;;;;;;5112006;28;20043;-64
2022/05/02 03:24:03;;;;;;;12.80;8.50;;;6.20;99.90;;;;;;5111805;28;20032;-64
2022/05/02 03:26:28;;;;;;;13.13;8.95;;;6.10;99.90;;;;;;5111500;28;20043;-64
2022/05/02 03:28:54;;;;;;;13.77;9.10;;;6.10;99.90;;;;;;5111435;28;20510;-64
2022/05/02 03:31:20;;;;;;;13.82;9.10;;;6.10;99.90;;;;;;5111549;28;20115;-64
2022/05/02 03:33:46;;;;;;;10.90;8.20;;;6.10;99.90;;;;;;5093747;28;20042;-65
2022/05/02 03:36:11;;;;;;;13.82;8.63;;;6.10;99.90;;;;;;5110959;28;20040;-65
2022/05/02 03:38:37;;;;;;;16.10;9.20;;;6.10;99.90;;;;;;5110060;28;20032;-65
2022/05/02 03:41:02;;;;;;;16.58;8.93;;;6.10;99.90;;;;;;5109500;28;20126;-65
2022/05/02 03:43:28;;;;;;;12.77;9.48;;;6.00;99.90;;;;;;5109441;28;20040;-65
2022/05/02 03:45:53;;;;;;;14.32;9.10;;;6.00;99.90;;;;;;5109882;28;20040;-67
2022/05/02 03:48:19;;;;;;;12.75;8.35;;;6.00;99.90;;;;;;5111002;28;20043;-65
2022/05/02 03:50:45;;;;;;;13.55;9.38;;;5.90;99.90;;;;;;5110898;28;20035;-64
2022/05/02 03:53:10;;;;;;;15.70;8.80;;;5.90;99.90;;;;;;5110826;28;20042;-65
2022/05/02 03:55:37;;;;;;;12.02;8.10;;;6.00;99.90;;;;;;5110578;28;20043;-64
2022/05/02 03:58:03;;;;;;;13.50;8.27;;;5.90;99.90;;;;;;5107510;28;20370;-65
2022/05/02 04:00:29;;;;;;;12.10;8.23;;;6.00;99.90;;;;;;5106391;28;20060;-65
2022/05/02 04:02:54;;;;;;;11.85;8.02;;;5.90;99.90;;;;;;5110135;28;20039;-65
2022/05/02 04:05:20;;;;;;;11.02;8.13;;;5.80;99.90;;;;;;5111294;28;20545;-66
2022/05/02 04:07:46;;;;;;;11.68;8.93;;;5.80;99.90;;;;;;5110201;28;20035;-67
2022/05/02 04:10:11;;;;;;;12.68;8.77;;;5.80;99.90;;;;;;5110056;28;20085;-65
2022/05/02 04:12:38;;;;;;;15.05;9.05;;;5.80;99.90;;;;;;5110622;28;20042;-65
2022/05/02 04:15:05;;;;;;;17.88;8.70;;;5.80;99.90;;;;;;5110817;28;20053;-64
2022/05/02 04:17:31;;;;;;;14.93;8.70;;;5.80;99.90;;;;;;5111145;28;20039;-64
2022/05/02 04:19:56;;;;;;;12.95;8.50;;;5.80;99.90;;;;;;5110861;28;20039;-66
2022/05/02 04:22:22;;;;;;;12.43;8.63;;;5.70;99.90;;;;;;5111214;28;20040;-64
2022/05/02 04:24:48;;;;;;;13.95;9.35;;;5.70;99.90;;;;;;5111091;28;20040;-64
2022/05/02 04:27:13;;;;;;;15.23;9.15;;;5.70;99.90;;;;;;5092675;28;20105;-64
2022/05/02 04:29:39;;;;;;;14.65;8.75;;;5.70;99.90;;;;;;5092406;28;20411;-67
2022/05/02 04:32:04;;;;;;;13.50;8.82;;;5.80;99.90;;;;;;5111178;28;20404;-65
2022/05/02 04:34:30;;;;;;;12.40;8.98;;;5.70;99.90;;;;;;5111115;28;20052;-65
2022/05/02 04:36:55;;;;;;;14.73;9.02;;;5.80;99.90;;;;;;5109937;28;20039;-64
2022/05/02 04:39:21;;;;;;;16.85;9.40;;;5.80;99.90;;;;;;5092277;28;20048;-66
2022/05/02 04:41:46;;;;;;;19.40;9.90;;;5.80;99.90;;;;;;5110122;28;20400;-64
2022/05/02 04:44:12;;;;;;;16.40;9.32;;;5.80;99.90;;;;;;5110757;28;20511;-65
2022/05/02 04:46:37;;;;;;;16.42;10.48;;;5.80;99.90;;;;;;5110856;28;20039;-65
2022/05/02 04:49:03;;;;;;;14.73;10.10;;;5.90;99.90;;;;;;5110460;28;20047;-66
2022/05/02 04:51:29;;;;;;;16.95;9.52;;;5.90;99.90;;;;;;5110802;28;20115;-64
2022/05/02 04:53:54;;;;;;;16.63;9.88;;;6.00;99.90;;;;;;5110839;28;20071;-65
2022/05/02 04:56:21;;;;;;;18.25;10.75;;;6.00;99.90;;;;;;5110376;28;20088;-64
2022/05/02 04:58:46;;;;;;;14.82;9.57;;;6.00;99.90;;;;;;5109388;28;20031;-64
2022/05/02 05:01:12;;;;;;;15.25;9.68;;;6.10;99.90;;;;;;5109967;28;20067;-64
2022/05/02 05:03:38;;;;;;;18.02;10.48;;;6.20;99.90;;;;;;5108900;28;20046;-67
2022/05/02 05:06:04;;;;;;;16.98;11.18;;;6.30;99.90;;;;;;5110156;28;20040;-64
2022/05/02 05:08:29;;;;;;;18.88;11.27;;;6.30;99.90;;;;;;5110387;28;20399;-64
2022/05/02 05:11:39;;;;;;;20.10;10.50;;;6.40;99.90;;;;;;5109562;28;20039;-64
2022/05/02 05:17:36;;;;;;;17.65;10.05;;;6.70;99.90;;;;;;5114073;28;20047;-64
2022/05/02 05:20:03;;;;;;;16.63;10.60;;;6.90;99.90;;;;;;5112873;28;20044;-64
2022/05/02 05:23:12;;;;;;;16.77;11.32;;;7.00;99.90;;;;;;5112985;28;20079;-64
2022/05/02 05:26:12;;;;;;;18.48;11.50;;;6.90;99.90;;;;;;5113739;28;20042;-65
2022/05/02 05:28:57;;;;;;;15.57;11.25;;;7.00;99.90;;;;;;5113675;28;20036;-64
2022/05/02 05:31:29;;;;;;;16.75;12.13;;;7.10;99.90;;;;;;5114060;28;20036;-64
2022/05/02 05:34:06;;;;;;;19.77;12.25;;;7.20;99.90;;;;;;5113901;28;20106;-65
2022/05/02 05:36:46;;;;;;;19.48;12.13;;;7.30;99.90;;;;;;5113495;28;20046;-64
2022/05/02 05:39:41;;;;;;;17.17;11.25;;;7.40;99.90;;;;;;5113363;28;20036;-64
2022/05/02 05:42:09;;;;;;;17.58;11.23;;;7.60;99.90;;;;;;5113859;28;20074;-65
2022/05/02 05:45:03;;;;;;;17.95;11.88;;;7.70;99.90;;;;;;5113749;28;20036;-65
2022/05/02 05:48:00;;;;;;;17.10;12.05;;;7.80;99.90;;;;;;5113898;28;20112;-66
2022/05/02 05:50:30;;;;;;;17.38;12.20;;;8.00;99.90;;;;;;5113577;28;20059;-65
2022/05/02 05:53:07;;;;;;;17.33;12.18;;;8.20;99.90;;;;;;5113561;28;20070;-65
2022/05/02 05:55:36;;;;;;;15.07;11.60;;;8.20;99.90;;;;;;5113466;28;20514;-65
2022/05/02 05:58:22;;;;;;;19.08;12.23;;;8.40;99.90;;;;;;5113228;28;20050;-66
2022/05/02 06:00:50;;;;;;;19.20;11.65;;;8.40;99.90;;;;;;5113095;28;20040;-65
2022/05/02 06:03:23;;;;;;;19.95;14.00;;;8.60;99.90;;;;;;5113152;28;20047;-65
2022/05/02 06:05:49;;;;;;;;;;;8.70;99.90;;;;;;5113838;28;20142;-66
2022/05/02 06:08:15;;;;;;;21.75;11.73;;;8.60;99.90;;;;;;5113223;28;20111;-65
2022/05/02 06:10:43;;;;;;;17.10;12.18;;;8.70;99.90;;;;;;5113415;28;20039;-65
2022/05/02 06:13:09;;;;;;;21.65;12.55;;;8.90;99.90;;;;;;5094028;28;20062;-65
2022/05/02 06:18:30;;;;;;;16.80;11.45;;;9.10;99.90;;;;;;5101027;28;20051;-65
2022/05/02 06:21:07;;;;;;;20.40;11.95;;;9.20;99.90;;;;;;5100949;28;20408;-65
2022/05/02 06:23:40;;;;;;;20.05;11.70;;;9.30;99.90;;;;;;5083290;28;20040;-65
2022/05/02 06:26:08;;;;;;;22.58;13.13;;;9.50;99.90;;;;;;5112338;28;20046;-66
2022/05/02 06:28:39;;;;;;;18.17;12.05;;;9.50;99.90;;;;;;5093639;28;20048;-68
2022/05/02 06:31:09;;;;;;;22.90;12.18;;;9.70;99.90;;;;;;5111839;28;20495;-65
2022/05/02 06:33:34;;;;;;;17.95;11.30;;;9.80;99.90;;;;;;5112724;28;20054;-65
2022/05/02 06:36:06;;;;;;;23.00;10.65;;;9.90;99.90;;;;;;5112663;28;20503;-69
2022/05/02 06:38:46;;;;;;;16.73;11.35;;;10.20;99.90;;;;;;5094059;28;20055;-68
2022/05/02 06:41:31;;;;;;;17.75;10.63;;;10.10;99.90;;;;;;5112502;28;20043;-68
2022/05/02 06:44:22;;;;;;;17.83;11.85;;;10.20;99.90;;;;;;5112747;28;20084;-69
2022/05/02 06:47:24;;;;;;;17.27;11.57;;;10.30;99.90;;;;;;5093660;28;20039;-68
2022/05/02 06:49:55;;;;;;;15.77;11.27;;;10.30;99.90;;;;;;5094139;28;20090;-68
2022/05/02 06:52:29;;;;;;;16.42;11.57;;;10.40;99.90;;;;;;5112839;28;20511;-68
2022/05/02 06:55:44;;;;;;;17.98;11.25;;;10.40;99.90;;;;;;5112503;28;20440;-69
2022/05/02 06:58:23;;;;;;;18.77;12.00;;;10.50;99.90;;;;;;5055684;28;20092;-68
2022/05/02 07:01:01;;;;;;;17.38;11.93;;;10.60;99.90;;;;;;5111783;28;20043;-68
2022/05/02 07:03:47;;;;;;;18.65;12.32;;;10.60;99.90;;;;;;5112128;28;20089;-68
2022/05/02 07:06:45;;;;;;;19.58;11.57;;;10.70;99.90;;;;;;5111870;28;20042;-69
2022/05/02 07:09:22;;;;;;;18.95;12.50;;;10.90;99.90;;;;;;5111848;28;20042;-69
2022/05/02 07:11:52;;;;;;;17.10;11.00;;;11.10;99.90;;;;;;5111176;28;20498;-69
2022/05/02 07:14:24;;;;;;;18.20;11.57;;;11.10;99.90;;;;;;5112014;28;20070;-68
2022/05/02 07:16:56;;;;;;;16.83;11.10;;;11.20;99.90;;;;;;5111953;28;20101;-68
2022/05/02 07:19:48;;;;;;;14.63;10.57;;;11.20;99.90;;;;;;5093624;28;20069;-68
2022/05/02 07:22:24;;;;;;;18.80;11.05;;;11.30;99.90;;;;;;5111955;28;20526;-68
2022/05/02 07:25:11;;;;;;;16.20;10.95;;;11.20;99.90;;;;;;5111859;28;20507;-68
2022/05/02 07:27:55;;;;;;;21.77;10.70;;;11.30;99.90;;;;;;5094128;28;20065;-69
2022/05/02 07:30:23;;;;;;;18.40;10.85;;;11.40;99.90;;;;;;5114337;28;20078;-68
2022/05/02 07:32:50;;;;;;;18.92;11.73;;;11.40;99.90;;;;;;5115584;28;20500;-69
2022/05/02 07:35:16;;;;;;;17.38;11.00;;;11.60;99.90;;;;;;5097412;28;20048;-69
2022/05/02 07:37:43;;;;;;;20.17;11.23;;;11.60;99.90;;;;;;5074803;28;20040;-69
2022/05/02 07:40:12;;;;;;;15.50;10.85;;;11.60;99.90;;;;;;5090222;28;20055;-69
2022/05/02 07:42:38;;;;;;;19.25;10.73;;;11.70;99.90;;;;;;5072964;28;20044;-69
2022/05/02 07:45:10;;;;;;;14.98;9.88;;;11.90;99.90;;;;;;5091096;28;20093;-69
2022/05/02 07:47:36;;;;;;;14.93;9.27;;;12.10;99.90;;;;;;5073228;28;20504;-69
2022/05/02 07:50:04;;;;;;;14.75;9.98;;;12.00;99.90;;;;;;5090829;28;20173;-70
2022/05/02 07:52:30;;;;;;;13.60;9.43;;;12.00;99.90;;;;;;5091132;28;20040;-69
2022/05/02 07:55:00;;;;;;;12.98;9.52;;;12.10;99.90;;;;;;5073113;28;20040;-69
2022/05/02 07:57:27;;;;;;;13.70;9.32;;;12.10;99.90;;;;;;5090272;28;20044;-69
2022/05/02 07:59:56;;;;;;;18.52;9.20;;;12.20;99.90;;;;;;5089893;28;20040;-69
2022/05/02 08:02:23;;;;;;;14.45;9.15;;;12.30;99.90;;;;;;5072340;28;20054;-68
2022/05/02 08:04:49;;;;;;;16.30;9.20;;;12.50;99.90;;;;;;5091209;28;20039;-68
2022/05/02 08:07:34;;;;;;;13.07;9.35;;;12.60;99.90;;;;;;5090657;28;20097;-68
2022/05/02 08:10:30;;;;;;;12.98;8.68;;;12.50;99.90;;;;;;5072824;28;20051;-68
2022/05/02 08:12:57;;;;;;;12.43;8.30;;;12.70;99.90;;;;;;5091027;28;20036;-67
2022/05/02 08:15:46;;;;;;;14.00;8.20;;;12.90;99.90;;;;;;5090769;28;20405;-68
2022/05/02 08:18:39;;;;;;;13.95;9.20;;;12.90;99.90;;;;;;5090964;28;20047;-69
2022/05/02 08:21:30;;;;;;;12.65;8.98;;;12.90;99.90;;;;;;5090804;28;20048;-69
2022/05/02 08:27:31;;;;;;;13.13;7.88;;;13.20;99.90;;;;;;5072646;28;20044;-69
2022/05/02 08:30:04;;;;;;;15.45;8.65;;;13.30;99.90;;;;;;5090757;28;20040;-69
2022/05/02 08:32:43;;;;;;;11.57;7.70;;;13.50;99.90;;;;;;5090951;28;20079;-69
2022/05/02 08:35:46;;;;;;;13.48;7.65;;;13.40;99.90;;;;;;5072515;28;20036;-69
2022/05/02 08:38:35;;;;;;;12.13;8.37;;;13.50;99.90;;;;;;5090109;28;20123;-69
2022/05/02 08:41:36;;;;;;;13.35;8.48;;;13.40;99.90;;;;;;5071235;28;20054;-68
2022/05/02 08:44:22;;;;;;;11.55;7.28;;;13.50;99.90;;;;;;5090567;28;20554;-69
2022/05/02 08:47:12;;;;;;;12.52;7.57;;;13.50;99.90;;;;;;5091509;28;20143;-69
2022/05/02 08:49:48;;;;;;;15.13;8.43;;;13.50;99.70;;;;;;5094073;28;20060;-69
2022/05/02 08:52:19;;;;;;;12.38;7.90;;;13.50;99.90;;;;;;5081826;28;20404;-70
2022/05/02 08:54:57;;;;;;;9.95;7.80;;;13.70;99.90;;;;;;5086800;28;20488;-69
2022/05/02 08:57:41;;;;;;;12.20;7.32;;;13.90;99.90;;;;;;5106164;28;20035;-69
2022/05/02 09:00:20;;;;;;;10.75;7.40;;;14.00;99.90;;;;;;5101380;28;20036;-69
2022/05/02 09:03:19;;;;;;;9.95;7.50;;;14.00;98.40;;;;;;5101435;28;20054;-69
2022/05/02 09:06:22;;;;;;;10.93;6.47;;;14.10;96.90;;;;;;5102945;28;20043;-69
2022/05/02 09:09:23;;;;;;;13.00;7.85;;;14.00;96.70;;;;;;5107050;28;20039;-69
2022/05/02 09:11:54;;;;;;;9.82;6.22;;;13.90;96.90;;;;;;5107624;28;20067;-70
2022/05/02 09:14:22;;;;;;;10.05;6.05;;;13.90;97.50;;;;;;5093074;28;20058;-69
2022/05/02 09:17:00;;;;;;;11.70;7.13;;;13.90;95.80;;;;;;5113341;28;20035;-69
2022/05/02 09:19:42;;;;;;;12.73;5.93;;;14.10;90.00;;;;;;5112170;28;20443;-69
2022/05/02 09:22:07;;;;;;;12.75;6.22;;;14.20;93.10;;;;;;5114331;28;20047;-69
2022/05/02 09:25:21;;;;;;;13.25;6.68;;;14.30;95.50;;;;;;5089648;28;20047;-69
2022/05/02 09:28:08;;;;;;;11.45;6.85;;;14.20;93.00;;;;;;5055656;28;20048;-69
2022/05/02 09:31:14;;;;;;;10.82;6.68;;;14.30;92.10;;;;;;5113019;28;20043;-69
2022/05/02 09:33:49;;;;;;;11.65;6.60;;;14.50;92.10;;;;;;5095429;28;20079;-70
2022/05/02 09:36:29;;;;;;;12.95;6.53;;;14.60;94.10;;;;;;5112871;28;20044;-70
2022/05/02 09:39:21;;;;;;;12.40;6.55;;;14.40;90.30;;;;;;5095354;28;20092;-70
2022/05/02 09:42:06;;;;;;;9.07;6.07;;;14.50;94.40;;;;;;5095408;28;20048;-69
2022/05/02 09:51:44;;;;;;;10.30;7.20;;;14.70;88.10;;;;;;5112821;28;20044;-70
2022/05/02 09:57:35;;;;;;;11.18;7.25;;;14.80;87.00;;;;;;5112499;28;20478;-69
2022/05/02 10:02:58;;;;;;;14.60;7.80;;;15.00;87.90;;;;;;5113455;28;20050;-69
2022/05/02 10:05:51;;;;;;;13.25;7.65;;;14.90;88.50;;;;;;5113358;28;20035;-70
2022/05/02 10:08:25;;;;;;;;;;;14.90;82.60;;;;;;5095627;28;20046;-70
2022/05/02 10:11:00;;;;;;;9.15;6.93;;;14.90;78.60;;;;;;5093939;28;19922;-69
2022/05/02 10:13:32;;;;;;;11.82;7.68;;;15.20;87.30;;;;;;5113046;28;20039;-69
2022/05/02 10:16:22;;;;;;;11.82;7.88;;;15.40;80.30;;;;;;5113043;28;20040;-69
2022/05/02 10:19:02;;;;;;;11.88;7.68;;;15.50;83.40;;;;;;5112402;28;20035;-69
2022/05/02 10:21:52;;;;;;;14.73;7.30;;;15.50;77.60;;;;;;5094723;28;20048;-69
2022/05/02 10:25:12;;;;;;;11.55;7.45;;;15.40;81.30;;;;;;5095094;28;20392;-70
2022/05/02 10:27:40;;;;;;;11.68;7.55;;;15.50;77.30;;;;;;5009681;28;20125;-69
2022/05/02 10:30:08;;;;;;;15.48;8.32;;;15.30;71.40;;;;;;5092540;28;20078;-69
2022/05/02 10:32:49;;;;;;;11.10;7.57;;;15.30;83.10;;;;;;5112168;28;20043;-69
2022/05/02 10:35:17;;;;;;;12.27;7.28;;;15.40;77.40;;;;;;5094756;28;20086;-70
2022/05/02 10:38:04;;;;;;;12.32;6.65;;;15.30;81.00;;;;;;5112700;28;20081;-69
2022/05/02 10:40:41;;;;;;;10.52;7.03;;;15.30;77.90;;;;;;5093008;28;20043;-69
2022/05/02 10:43:16;;;;;;;11.25;7.55;;;15.20;82.80;;;;;;5112794;28;20074;-69
2022/05/02 10:45:42;;;;;;;13.15;7.60;;;15.30;82.70;;;;;;5112667;28;20044;-69
2022/05/02 10:48:17;;;;;;;8.95;6.93;;;15.40;79.70;;;;;;5094310;28;20050;-69
2022/05/02 10:51:14;;;;;;;9.95;6.90;;;15.40;79.70;;;;;;5112459;28;20047;-69
2022/05/02 10:54:03;;;;;;;13.98;6.90;;;15.50;84.30;;;;;;5094299;28;20408;-70
2022/05/02 10:56:47;;;;;;;14.18;7.38;;;15.70;83.50;;;;;;5112177;28;20462;-69
2022/05/02 10:59:14;;;;;;;11.23;6.97;;;15.60;70.60;;;;;;5111852;28;20723;-69
2022/05/02 11:02:03;;;;;;;8.93;7.03;;;15.50;74.50;;;;;;5094364;28;20426;-69
2022/05/02 11:05:25;;;;;;;8.18;6.05;;;15.60;76.20;;;;;;5112279;28;20044;-69
2022/05/02 11:07:55;;;;;;;12.02;8.00;;;15.80;81.00;;;;;;5009471;28;20108;-67
2022/05/02 11:10:26;;;;;;;13.57;7.53;;;15.70;69.20;;;;;;5092479;28;20087;-66
2022/05/02 11:13:04;;;;;;;12.32;7.18;;;15.80;79.00;;;;;;5112158;28;20031;-68
2022/05/02 11:15:48;;;;;;;10.63;7.32;;;15.80;75.60;;;;;;5111820;28;20506;-67
2022/05/02 11:21:46;;;;;;;14.18;7.38;;;15.90;66.80;;;;;;5111642;28;20087;-67
2022/05/02 11:25:08;;;;;;;11.65;7.43;;;15.90;72.00;;;;;;5110337;28;20039;-68
2022/05/02 11:28:05;;;;;;;11.10;7.55;;;15.80;64.30;;;;;;5056042;28;20048;-68
2022/05/02 11:30:40;;;;;;;13.55;7.38;;;16.00;65.60;;;;;;5110344;28;20099;-67
2022/05/02 11:33:30;;;;;;;12.82;7.13;;;15.90;58.80;;;;;;5111768;28;20043;-67
2022/05/02 11:36:00;;;;;;;11.82;6.43;;;16.10;62.70;;;;;;5111716;28;20407;-66
2022/05/02 11:38:32;;;;;;;11.60;6.57;;;16.20;69.60;;;;;;5110095;28;20055;-68
2022/05/02 11:41:14;;;;;;;12.23;6.78;;;16.30;73.00;;;;;;5111311;28;20085;-67
2022/05/02 11:43:39;;;;;;;10.43;6.30;;;16.40;68.20;;;;;;5111639;28;20040;-68
2022/05/02 11:46:22;;;;;;;12.32;6.85;;;16.40;59.90;;;;;;5105230;28;20027;-68
2022/05/02 11:49:12;;;;;;;11.05;7.07;;;16.50;54.40;;;;;;5111231;28;20043;-66
2022/05/02 11:51:45;;;;;;;8.10;5.43;;;16.40;55.20;;;;;;5110848;28;20039;-66
2022/05/02 11:54:23;;;;;;;11.77;6.82;;;16.30;59.70;;;;;;5111418;28;20373;-67
2022/05/02 11:56:55;;;;;;;9.25;6.05;;;16.30;55.60;;;;;;5102881;28;20089;-67
2022/05/02 11:59:23;;;;;;;10.43;6.47;;;16.40;53.30;;;;;;5101770;28;20036;-66
2022/05/02 12:02:02;;;;;;;9.30;6.07;;;16.30;54.10;;;;;;5111270;28;20460;-67
2022/05/02 12:04:30;;;;;;;11.13;6.55;;;16.30;55.50;;;;;;5093116;28;20043;-66
2022/05/02 12:07:08;;;;;;;9.48;6.15;;;16.30;56.30;;;;;;5109990;28;20050;-67
2022/05/02 12:09:35;;;;;;;8.50;6.35;;;16.50;57.20;;;;;;5110668;28;20047;-67
2022/05/02 12:12:07;;;;;;;8.43;6.32;;;16.50;61.70;;;;;;5111285;28;20040;-67
2022/05/02 12:14:33;;;;;;;9.30;7.00;;;16.50;59.60;;;;;;5111205;28;20624;-66
2022/05/02 12:17:12;;;;;;;9.35;6.40;;;16.60;61.10;;;;;;5111011;28;20051;-66
2022/05/02 12:19:39;;;;;;;11.15;6.47;;;16.70;59.40;;;;;;5110551;28;20042;-67
2022/05/02 12:22:13;;;;;;;8.90;6.30;;;16.90;58.60;;;;;;5114619;28;20040;-67
2022/05/02 12:24:42;;;;;;;10.68;6.85;;;16.80;60.50;;;;;;5080060;28;20078;-66
2022/05/02 12:27:09;;;;;;;9.85;6.05;;;16.90;58.60;;;;;;5115243;28;20050;-66
2022/05/02 12:29:36;;;;;;;10.95;6.10;;;16.90;58.60;;;;;;5114903;28;20518;-67
2022/05/02 12:32:07;;;;;;;9.90;6.78;;;16.80;58.90;;;;;;5115311;28;20040;-66
2022/05/02 12:34:46;;;;;;;10.77;6.05;;;16.80;57.10;;;;;;5115064;28;20496;-66
2022/05/02 12:37:33;;;;;;;6.90;5.72;;;17.00;66.10;;;;;;5115069;28;20043;-65
2022/05/02 12:40:08;;;;;;;11.05;6.30;;;17.20;64.50;;;;;;5114695;28;20039;-65
2022/05/02 12:42:44;;;;;;;8.00;5.85;;;17.10;56.60;;;;;;5114786;28;20039;-66
2022/05/02 12:45:13;;;;;;;10.77;6.95;;;17.20;57.90;;;;;;5096776;28;20135;-65
2022/05/02 12:47:56;;;;;;;10.50;5.97;;;17.10;56.40;;;;;;5113979;28;20100;-65
2022/05/02 12:50:27;;;;;;;6.70;5.10;;;17.00;55.10;;;;;;5113876;28;20036;-65
2022/05/02 12:52:55;;;;;;;9.60;5.85;;;17.10;56.70;;;;;;5114090;28;20051;-65
2022/05/02 12:55:29;;;;;;;8.50;5.72;;;17.20;56.10;;;;;;5114592;28;20036;-65
2022/05/02 13:00:43;;;;;;;8.02;4.88;;;17.20;57.10;;;;;;5114216;28;20044;-65
2022/05/02 13:03:17;;;;;;;9.13;5.65;;;17.30;59.00;;;;;;5114369;28;20044;-66
2022/05/02 13:05:53;;;;;;;12.15;5.07;;;17.30;58.90;;;;;;5114579;28;20036;-66
2022/05/02 13:08:43;;;;;;;8.25;5.72;;;17.50;60.90;;;;;;5114303;28;20780;-67
2022/05/02 13:11:15;;;;;;;8.43;5.60;;;17.50;55.80;;;;;;5114447;28;20050;-66
2022/05/02 13:13:48;;;;;;;8.93;5.10;;;17.30;54.10;;;;;;5096002;28;20368;-65
2022/05/02 13:16:17;;;;;;;8.55;4.20;;;17.40;57.00;;;;;;5114425;28;20046;-66
2022/05/02 13:18:47;;;;;;;10.20;4.65;;;17.50;53.40;;;;;;5113240;28;20051;-66
2022/05/02 13:21:14;;;;;;;8.35;3.90;;;17.40;53.30;;;;;;5112689;28;20507;-66
2022/05/02 13:23:43;;;;;;;5.55;4.53;;;17.40;55.50;;;;;;5112646;28;20078;-66
2022/05/02 13:26:40;;;;;;;4.97;4.38;;;17.60;55.20;;;;;;5112926;28;20032;-67
2022/05/02 13:29:36;;;;;;;4.78;3.95;;;17.80;54.90;;;;;;5095660;28;20044;-66
2022/05/02 13:32:07;;;;;;;9.05;4.35;;;17.80;53.50;;;;;;5102193;28;20035;-67
2022/05/02 13:34:34;;;;;;;6.63;4.05;;;17.80;53.10;;;;;;5102369;28;20104;-67
2022/05/02 13:37:24;;;;;;;4.65;3.60;;;17.70;54.10;;;;;;5105448;28;20118;-66
2022/05/02 13:40:08;;;;;;;6.70;4.35;;;17.80;53.50;;;;;;5086215;28;20728;-67
2022/05/02 13:42:39;;;;;;;6.40;4.05;;;17.80;53.30;;;;;;5102959;28;20080;-67
2022/05/02 13:45:11;;;;;;;7.77;4.20;;;17.90;55.50;;;;;;5103538;28;20519;-66
2022/05/02 13:47:50;;;;;;;7.75;4.53;;;17.70;51.80;;;;;;5102839;28;20039;-66
2022/05/02 13:50:20;;;;;;;8.00;4.97;;;17.80;52.30;;;;;;5103212;28;20043;-67